Time;durP1;ratioP1;P1;durP2;ratioP2;P2;SDS_P1;SDS_P2;PMS_P1;PMS_P2;Temp;Humidity;BMP_temperature;BMP_pressure;BME280_temperature;BME280_humidity;BME280_pressure;Samples;Min_cycle;Max_cycle;Signal;HPM_P1;HPM_P2
2022/07/30 00:00:15;;;;;;;5.35;2.33;;;;;;;;;;5027870;28;20037;-71
2022/07/30 00:02:40;;;;;;;9.35;2.53;;;;;;;;;;5034009;28;20353;-71
2022/07/30 00:05:06;;;;;;;4.72;2.72;;;;;;;;;;5032906;28;20025;-70
2022/07/30 00:07:31;;;;;;;4.68;2.45;;;;;;;;;;5033954;28;20428;-71
2022/07/30 00:09:57;;;;;;;6.90;2.63;;;;;;;;;;5033736;28;20017;-71
2022/07/30 00:12:22;;;;;;;5.93;2.75;;;;;;;;;;5036684;28;20445;-72
2022/07/30 00:14:47;;;;;;;4.05;2.55;;;;;;;;;;5033206;28;20061;-71
2022/07/30 00:17:13;;;;;;;4.15;2.85;;;;;;;;;;5033827;28;20018;-71
2022/07/30 00:19:38;;;;;;;3.83;2.75;;;;;;;;;;5032324;28;20021;-71
2022/07/30 00:22:03;;;;;;;5.82;2.80;;;;;;;;;;5027834;28;20563;-72
2022/07/30 00:24:28;;;;;;;4.72;3.28;;;;;;;;;;5031217;28;20045;-71
2022/07/30 00:26:54;;;;;;;4.65;2.88;;;;;;;;;;5029283;28;20025;-72
2022/07/30 00:29:19;;;;;;;5.47;3.08;;;;;;;;;;5026143;28;20108;-71
2022/07/30 00:31:44;;;;;;;6.22;3.08;;;;;;;;;;5033074;28;20021;-71
2022/07/30 00:34:11;;;;;;;6.10;2.75;;;;;;;;;;5031897;28;20453;-70
2022/07/30 00:36:37;;;;;;;5.63;3.05;;;;;;;;;;5023689;28;20033;-71
2022/07/30 00:39:02;;;;;;;4.45;2.97;;;;;;;;;;5032673;28;20044;-71
2022/07/30 00:41:27;;;;;;;6.53;2.97;;;;;;;;;;5031148;28;20108;-71
2022/07/30 00:43:53;;;;;;;5.35;3.17;;;;;;;;;;5031063;28;20041;-71
2022/07/30 00:46:18;;;;;;;6.25;3.30;;;;;;;;;;5031382;28;20021;-71
2022/07/30 00:48:44;;;;;;;7.50;3.08;;;;;;;;;;5032325;28;20449;-71
2022/07/30 00:51:09;;;;;;;6.78;3.30;;;;;;;;;;5032786;28;20041;-71
2022/07/30 00:53:35;;;;;;;7.05;3.10;;;;;;;;;;5032155;28;20163;-71
2022/07/30 00:56:01;;;;;;;6.13;3.42;;;;;;;;;;5032078;28;20021;-71
2022/07/30 00:58:26;;;;;;;5.90;3.10;;;;;;;;;;5028702;28;20056;-71
2022/07/30 01:00:52;;;;;;;5.00;3.42;;;;;;;;;;5027761;28;20061;-72
2022/07/30 01:03:17;;;;;;;6.18;3.38;;;;;;;;;;5027367;28;20108;-71
2022/07/30 01:05:42;;;;;;;5.97;3.28;;;;;;;;;;5030116;28;20037;-71
2022/07/30 01:08:07;;;;;;;5.57;3.38;;;;;;;;;;5032942;28;20018;-72
2022/07/30 01:10:33;;;;;;;5.40;3.40;;;;;;;;;;5035085;28;20025;-71
2022/07/30 01:13:00;;;;;;;5.90;3.60;;;;;;;;;;5032715;28;20069;-71
2022/07/30 01:15:26;;;;;;;7.82;4.07;;;;;;;;;;5026856;28;20130;-72
2022/07/30 01:17:52;;;;;;;5.53;3.90;;;;;;;;;;5032078;28;20391;-71
2022/07/30 01:20:19;;;;;;;6.22;3.83;;;;;;;;;;5032693;28;20061;-71
2022/07/30 01:22:56;;;;;;;6.03;4.25;;;;;;;;;;5031998;28;20013;-71
2022/07/30 01:25:31;;;;;;;6.75;3.80;;;;;;;;;;5032694;28;20381;-71
2022/07/30 01:28:05;;;;;;;8.82;3.92;;;;;;;;;;5024155;28;20117;-71
2022/07/30 01:30:33;;;;;;;6.35;4.05;;;;;;;;;;5030888;28;20025;-71
2022/07/30 01:32:58;;;;;;;5.15;3.70;;;;;;;;;;5032453;28;20469;-71
2022/07/30 01:35:26;;;;;;;7.25;4.05;;;;;;;;;;5030969;28;20026;-71
2022/07/30 01:37:53;;;;;;;7.25;4.07;;;;;;;;;;5033449;28;20036;-71
2022/07/30 01:40:18;;;;;;;5.32;4.20;;;;;;;;;;5031519;28;20108;-71
2022/07/30 01:42:44;;;;;;;5.15;3.65;;;;;;;;;;5027716;28;20441;-71
2022/07/30 01:45:10;;;;;;;7.03;3.72;;;;;;;;;;5031688;28;20033;-71
2022/07/30 01:47:37;;;;;;;5.63;3.92;;;;;;;;;;5032365;28;20038;-71
2022/07/30 01:50:05;;;;;;;7.35;4.15;;;;;;;;;;5032269;28;20375;-72
2022/07/30 01:52:31;;;;;;;6.97;4.03;;;;;;;;;;5032533;28;20017;-71
2022/07/30 01:54:57;;;;;;;7.15;3.92;;;;;;;;;;5031797;28;20048;-71
2022/07/30 01:57:24;;;;;;;5.90;4.13;;;;;;;;;;5032295;28;20060;-71
2022/07/30 01:59:51;;;;;;;7.85;4.05;;;;;;;;;;5013016;28;20091;-71
2022/07/30 02:02:16;;;;;;;7.25;4.05;;;;;;;;;;5029706;28;20044;-71
2022/07/30 02:04:41;;;;;;;7.55;4.15;;;;;;;;;;5032131;28;20021;-71
2022/07/30 02:07:15;;;;;;;7.32;4.50;;;;;;;;;;5025776;28;20461;-72
2022/07/30 02:09:44;;;;;;;6.63;4.57;;;;;;;;;;5032039;28;20388;-71
2022/07/30 02:12:30;;;;;;;6.20;4.80;;;;;;;;;;5035202;28;20099;-70
2022/07/30 02:15:02;;;;;;;6.47;4.25;;;;;;;;;;5024614;28;20080;-71
2022/07/30 02:17:35;;;;;;;10.88;5.05;;;;;;;;;;5031130;28;20386;-71
2022/07/30 02:20:01;;;;;;;7.03;5.10;;;;;;;;;;5030370;28;20075;-71
2022/07/30 02:22:28;;;;;;;12.85;5.10;;;;;;;;;;5032478;28;20064;-71
2022/07/30 02:24:54;;;;;;;9.40;5.30;;;;;;;;;;5030745;28;20592;-71
2022/07/30 02:27:39;;;;;;;10.43;5.35;;;;;;;;;;5032368;28;20075;-71
2022/07/30 02:30:04;;;;;;;10.48;5.28;;;;;;;;;;5031436;28;20030;-70
2022/07/30 02:32:33;;;;;;;9.60;5.82;;;;;;;;;;5026583;28;20025;-71
2022/07/30 02:35:00;;;;;;;9.65;5.90;;;;;;;;;;5028756;28;20036;-71
2022/07/30 02:37:26;;;;;;;12.77;6.30;;;;;;;;;;5035529;28;20128;-71
2022/07/30 02:39:53;;;;;;;10.82;5.93;;;;;;;;;;5035630;28;20032;-71
2022/07/30 02:42:20;;;;;;;9.57;5.93;;;;;;;;;;5035513;28;20026;-71
2022/07/30 02:44:47;;;;;;;14.40;6.50;;;;;;;;;;5034576;28;20453;-71
2022/07/30 02:47:15;;;;;;;12.85;6.35;;;;;;;;;;5034745;28;20041;-71
2022/07/30 02:49:40;;;;;;;11.32;5.95;;;;;;;;;;5035351;28;20026;-71
2022/07/30 02:52:12;;;;;;;9.48;6.10;;;;;;;;;;5035418;28;20022;-71
2022/07/30 02:54:38;;;;;;;9.85;6.50;;;;;;;;;;5034334;28;20064;-71
2022/07/30 02:57:05;;;;;;;12.25;6.97;;;;;;;;;;5035448;28;20080;-71
2022/07/30 02:59:31;;;;;;;9.65;6.88;;;;;;;;;;5034619;28;20507;-71
2022/07/30 03:01:56;;;;;;;13.98;7.13;;;;;;;;;;5034658;28;20030;-71
2022/07/30 03:04:22;;;;;;;12.77;7.15;;;;;;;;;;5032040;28;20029;-71
2022/07/30 03:06:48;;;;;;;10.23;6.55;;;;;;;;;;5034806;28;20029;-71
2022/07/30 03:09:14;;;;;;;10.52;6.53;;;;;;;;;;5034882;28;20037;-71
2022/07/30 03:11:40;;;;;;;12.65;6.85;;;;;;;;;;5027191;28;20022;-71
2022/07/30 03:14:06;;;;;;;14.02;6.85;;;;;;;;;;5034338;28;20046;-71
2022/07/30 03:16:33;;;;;;;11.88;6.35;;;;;;;;;;5028060;28;20041;-71
2022/07/30 03:19:01;;;;;;;12.00;7.05;;;;;;;;;;5027113;28;20021;-71
2022/07/30 03:21:27;;;;;;;9.88;6.53;;;;;;;;;;5034728;28;20040;-71
2022/07/30 03:23:53;;;;;;;11.05;6.50;;;;;;;;;;5029562;28;20034;-71
2022/07/30 03:26:20;;;;;;;10.30;6.50;;;;;;;;;;5033999;28;20021;-71
2022/07/30 03:28:45;;;;;;;12.02;6.97;;;;;;;;;;5035036;28;20076;-71
2022/07/30 03:31:13;;;;;;;11.85;6.57;;;;;;;;;;5034173;28;20037;-71
2022/07/30 03:33:39;;;;;;;10.40;6.28;;;;;;;;;;5034581;28;20034;-71
2022/07/30 03:36:05;;;;;;;9.93;6.53;;;;;;;;;;5032340;28;20029;-71
2022/07/30 03:38:31;;;;;;;10.77;6.57;;;;;;;;;;5034566;28;20428;-71
2022/07/30 03:40:57;;;;;;;10.80;6.53;;;;;;;;;;5034258;28;20112;-71
2022/07/30 03:43:23;;;;;;;13.93;7.28;;;;;;;;;;5034630;28;20095;-72
2022/07/30 03:45:49;;;;;;;12.70;6.60;;;;;;;;;;5024879;28;20436;-71
2022/07/30 03:48:14;;;;;;;12.63;6.85;;;;;;;;;;5031022;28;20441;-71
2022/07/30 03:50:40;;;;;;;11.10;6.50;;;;;;;;;;5033783;28;20033;-71
2022/07/30 03:53:07;;;;;;;10.32;6.00;;;;;;;;;;5033829;28;20029;-71
2022/07/30 03:55:33;;;;;;;14.30;6.47;;;;;;;;;;5034222;28;20021;-71
2022/07/30 03:57:59;;;;;;;10.80;7.60;;;;;;;;;;5034279;28;20036;-71
2022/07/30 04:00:25;;;;;;;9.27;6.60;;;;;;;;;;5033331;28;20519;-71
2022/07/30 04:02:51;;;;;;;12.27;6.82;;;;;;;;;;5031109;28;20014;-71
2022/07/30 04:05:16;;;;;;;12.82;7.13;;;;;;;;;;5033934;28;20030;-71
2022/07/30 04:07:42;;;;;;;15.82;7.38;;;;;;;;;;5033330;28;20046;-71
2022/07/30 04:10:08;;;;;;;9.48;6.57;;;;;;;;;;5033833;28;20108;-71
2022/07/30 04:12:33;;;;;;;10.65;6.55;;;;;;;;;;5034016;28;20362;-71
2022/07/30 04:14:59;;;;;;;11.75;6.38;;;;;;;;;;5033225;28;20052;-71
2022/07/30 04:17:33;;;;;;;9.02;6.43;;;;;;;;;;5031743;28;20096;-70
2022/07/30 04:20:05;;;;;;;9.10;6.13;;;;;;;;;;5032409;28;20029;-71
2022/07/30 04:22:32;;;;;;;10.45;5.90;;;;;;;;;;5031150;28;20045;-71
2022/07/30 04:24:58;;;;;;;8.35;5.60;;;;;;;;;;5030933;28;20025;-71
2022/07/30 04:27:24;;;;;;;9.88;6.05;;;;;;;;;;5033496;28;20029;-71
2022/07/30 04:29:53;;;;;;;10.88;6.15;;;;;;;;;;5030462;28;20445;-71
2022/07/30 04:32:18;;;;;;;9.32;6.53;;;;;;;;;;5033418;28;20488;-71
2022/07/30 04:34:47;;;;;;;11.80;6.78;;;;;;;;;;5032513;28;20029;-71
2022/07/30 04:37:14;;;;;;;11.30;5.78;;;;;;;;;;5032090;28;20033;-71
2022/07/30 04:39:39;;;;;;;10.48;5.45;;;;;;;;;;5015601;28;20428;-71
2022/07/30 04:42:04;;;;;;;10.65;5.57;;;;;;;;;;5033758;28;20059;-71
2022/07/30 04:44:30;;;;;;;7.50;5.25;;;;;;;;;;5033024;28;20041;-71
2022/07/30 04:46:55;;;;;;;8.05;5.00;;;;;;;;;;5033532;28;20029;-71
2022/07/30 04:49:21;;;;;;;8.35;5.25;;;;;;;;;;5030719;28;20033;-71
2022/07/30 04:51:47;;;;;;;10.07;5.20;;;;;;;;;;5032358;28;20350;-70
2022/07/30 04:54:13;;;;;;;7.03;5.00;;;;;;;;;;5029115;28;20165;-71
2022/07/30 04:56:39;;;;;;;9.65;4.88;;;;;;;;;;5028150;28;20029;-71
2022/07/30 04:59:05;;;;;;;5.97;4.47;;;;;;;;;;5032746;28;20484;-71
2022/07/30 05:01:33;;;;;;;6.05;4.13;;;;;;;;;;5030497;28;20026;-71
2022/07/30 05:03:59;;;;;;;6.75;4.15;;;;;;;;;;5033190;28;20064;-71
2022/07/30 05:06:25;;;;;;;9.15;4.70;;;;;;;;;;5031532;28;20065;-71
2022/07/30 05:08:50;;;;;;;6.97;3.80;;;;;;;;;;5033009;28;20036;-71
2022/07/30 05:11:16;;;;;;;5.60;4.03;;;;;;;;;;5032050;28;20525;-71
2022/07/30 05:13:47;;;;;;;8.90;4.32;;;;;;;;;;5032671;28;20049;-71
2022/07/30 05:16:12;;;;;;;6.20;4.10;;;;;;;;;;5032137;28;20044;-71
2022/07/30 05:18:37;;;;;;;6.53;3.63;;;;;;;;;;5032268;28;20029;-71
2022/07/30 05:21:03;;;;;;;6.15;3.80;;;;;;;;;;5032417;28;20116;-71
2022/07/30 05:23:28;;;;;;;5.90;3.55;;;;;;;;;;5032161;28;20405;-71
2022/07/30 05:25:54;;;;;;;5.50;3.35;;;;;;;;;;5032353;28;20025;-71
2022/07/30 05:28:19;;;;;;;4.93;3.17;;;;;;;;;;5029375;28;20392;-70
2022/07/30 05:30:45;;;;;;;5.03;3.53;;;;;;;;;;5031430;28;20025;-71
2022/07/30 05:33:10;;;;;;;5.93;3.33;;;;;;;;;;5032064;28;20044;-71
2022/07/30 05:35:35;;;;;;;5.95;3.20;;;;;;;;;;5028957;28;20041;-71
2022/07/30 05:38:00;;;;;;;5.07;2.92;;;;;;;;;;5033247;28;20405;-71
2022/07/30 05:40:26;;;;;;;5.13;3.25;;;;;;;;;;5031768;28;20384;-71
2022/07/30 05:42:51;;;;;;;7.43;2.65;;;;;;;;;;5032451;28;20126;-71
2022/07/30 05:45:16;;;;;;;4.93;2.75;;;;;;;;;;5031458;28;20040;-71
2022/07/30 05:47:42;;;;;;;4.90;2.65;;;;;;;;;;5032318;28;20116;-71
2022/07/30 05:50:07;;;;;;;5.68;2.95;;;;;;;;;;5027405;28;20519;-71
2022/07/30 05:52:33;;;;;;;8.38;2.63;;;;;;;;;;5031007;28;20906;-71
2022/07/30 05:54:58;;;;;;;4.25;2.40;;;;;;;;;;5031530;28;20469;-71
2022/07/30 05:57:23;;;;;;;4.38;2.40;;;;;;;;;;5031574;28;20033;-71
2022/07/30 05:59:49;;;;;;;5.55;2.70;;;;;;;;;;5030710;28;20017;-71
2022/07/30 06:02:14;;;;;;;3.80;2.38;;;;;;;;;;5031741;28;20037;-71
2022/07/30 06:04:39;;;;;;;5.70;2.53;;;;;;;;;;5031779;28;20079;-71
2022/07/30 06:07:05;;;;;;;6.18;2.63;;;;;;;;;;5027085;28;20370;-71
2022/07/30 06:09:30;;;;;;;3.28;2.03;;;;;;;;;;5032718;28;20021;-71
2022/07/30 06:11:55;;;;;;;4.30;2.13;;;;;;;;;;5018017;28;20065;-72
2022/07/30 06:14:21;;;;;;;3.25;1.83;;;;;;;;;;5035536;28;20053;-72
2022/07/30 06:16:46;;;;;;;3.65;2.15;;;;;;;;;;5035979;28;20036;-71
2022/07/30 06:19:11;;;;;;;4.15;2.28;;;;;;;;;;5036259;28;20116;-71
2022/07/30 06:21:36;;;;;;;3.88;2.35;;;;;;;;;;5033334;28;20483;-72
2022/07/30 06:24:02;;;;;;;5.28;2.40;;;;;;;;;;5035328;28;20032;-71
2022/07/30 06:26:27;;;;;;;3.20;2.08;;;;;;;;;;5034795;28;20037;-71
2022/07/30 06:28:52;;;;;;;3.55;1.83;;;;;;;;;;5034681;28;20029;-71
2022/07/30 06:31:18;;;;;;;3.75;2.13;;;;;;;;;;5035344;28;20472;-72
2022/07/30 06:33:43;;;;;;;8.07;2.20;;;;;;;;;;5035524;28;20042;-71
2022/07/30 06:36:08;;;;;;;4.93;2.53;;;;;;;;;;5036069;28;20100;-71
2022/07/30 06:38:34;;;;;;;3.05;1.90;;;;;;;;;;5034668;28;20024;-71
2022/07/30 06:40:59;;;;;;;3.47;2.10;;;;;;;;;;5035300;28;20038;-71
2022/07/30 06:43:24;;;;;;;3.65;2.20;;;;;;;;;;5035371;28;20083;-71
2022/07/30 06:45:50;;;;;;;3.42;2.00;;;;;;;;;;5035780;28;20056;-71
2022/07/30 06:48:15;;;;;;;4.15;2.22;;;;;;;;;;5039045;28;20524;-71
2022/07/30 06:50:40;;;;;;;3.67;2.20;;;;;;;;;;5043606;28;20021;-71
2022/07/30 06:53:06;;;;;;;4.25;2.35;;;;;;;;;;5035543;28;20075;-71
2022/07/30 06:55:31;;;;;;;5.43;2.15;;;;;;;;;;5030521;28;20369;-71
2022/07/30 06:57:57;;;;;;;6.15;2.45;;;;;;;;;;5035570;28;20026;-71
2022/07/30 07:00:22;;;;;;;3.35;2.10;;;;;;;;;;5035296;28;20488;-71
2022/07/30 07:02:47;;;;;;;5.82;2.30;;;;;;;;;;5035390;28;20057;-71
2022/07/30 07:05:13;;;;;;;5.60;2.22;;;;;;;;;;5030820;28;20017;-71
2022/07/30 07:07:39;;;;;;;4.97;2.30;;;;;;;;;;5033624;28;20032;-71
2022/07/30 07:10:04;;;;;;;6.03;1.92;;;;;;;;;;5030864;28;20041;-71
2022/07/30 07:12:30;;;;;;;3.92;2.22;;;;;;;;;;5036161;28;20051;-71
2022/07/30 07:14:55;;;;;;;5.45;2.10;;;;;;;;;;5033859;28;20077;-72
2022/07/30 07:17:20;;;;;;;4.03;2.00;;;;;;;;;;5034305;28;20395;-71
2022/07/30 07:19:45;;;;;;;4.80;2.35;;;;;;;;;;5032263;28;20056;-71
2022/07/30 07:22:11;;;;;;;5.43;1.95;;;;;;;;;;5032864;28;20025;-72
2022/07/30 07:24:36;;;;;;;4.65;2.10;;;;;;;;;;5034727;28;20095;-71
2022/07/30 07:27:01;;;;;;;2.97;1.88;;;;;;;;;;5034973;28;20018;-71
2022/07/30 07:29:27;;;;;;;5.10;1.80;;;;;;;;;;5035308;28;20030;-71
2022/07/30 07:31:52;;;;;;;5.38;1.85;;;;;;;;;;5034944;28;20044;-72
2022/07/30 07:34:17;;;;;;;4.45;1.95;;;;;;;;;;5034407;28;20128;-71
2022/07/30 07:36:42;;;;;;;3.70;1.92;;;;;;;;;;5034574;28;20068;-71
2022/07/30 07:39:11;;;;;;;3.53;1.58;;;;;;;;;;5034423;28;20033;-71
2022/07/30 07:41:36;;;;;;;6.25;1.70;;;;;;;;;;5031805;28;20089;-71
2022/07/30 07:44:02;;;;;;;4.78;1.67;;;;;;;;;;5024204;28;20146;-71
2022/07/30 07:46:28;;;;;;;7.75;1.85;;;;;;;;;;5029233;28;20041;-71
2022/07/30 07:48:53;;;;;;;5.35;1.85;;;;;;;;;;5026264;28;20014;-72
2022/07/30 07:51:19;;;;;;;4.15;1.90;;;;;;;;;;5028220;28;20450;-72
2022/07/30 07:53:45;;;;;;;4.43;1.65;;;;;;;;;;5029309;28;20037;-71
2022/07/30 07:56:10;;;;;;;3.72;1.88;;;;;;;;;;5025908;28;20024;-72
2022/07/30 07:58:35;;;;;;;4.25;1.50;;;;;;;;;;5023079;28;20064;-71
2022/07/30 08:01:01;;;;;;;4.72;1.80;;;;;;;;;;5030095;28;20078;-71
2022/07/30 08:03:26;;;;;;;5.68;1.80;;;;;;;;;;5029408;28;20057;-71
2022/07/30 08:05:51;;;;;;;8.75;2.08;;;;;;;;;;5028682;28;20033;-71
2022/07/30 08:08:16;;;;;;;3.50;1.85;;;;;;;;;;5030707;28;20044;-71
2022/07/30 08:10:42;;;;;;;7.47;2.05;;;;;;;;;;5031097;28;20104;-71
2022/07/30 08:13:07;;;;;;;4.10;2.00;;;;;;;;;;5032413;28;20040;-71
2022/07/30 08:15:32;;;;;;;5.43;2.00;;;;;;;;;;5026961;28;20085;-71
2022/07/30 08:17:58;;;;;;;5.03;1.92;;;;;;;;;;5021453;28;20022;-72
2022/07/30 08:20:23;;;;;;;8.65;2.40;;;;;;;;;;5029683;28;20025;-71
2022/07/30 08:22:49;;;;;;;3.80;2.10;;;;;;;;;;5030710;28;20473;-72
2022/07/30 08:25:15;;;;;;;5.13;2.05;;;;;;;;;;5017782;28;20054;-71
2022/07/30 08:27:40;;;;;;;4.15;2.33;;;;;;;;;;5026148;28;20033;-71
2022/07/30 08:30:06;;;;;;;4.88;2.20;;;;;;;;;;5028784;28;20029;-71
2022/07/30 08:32:32;;;;;;;8.27;2.60;;;;;;;;;;5028999;28;20017;-71
2022/07/30 08:34:57;;;;;;;4.50;2.85;;;;;;;;;;5011659;28;20524;-71
2022/07/30 08:37:22;;;;;;;7.05;3.25;;;;;;;;;;5030663;28;20473;-72
2022/07/30 08:39:48;;;;;;;5.78;2.78;;;;;;;;;;5030275;28;20096;-72
2022/07/30 08:42:15;;;;;;;9.52;2.50;;;;;;;;;;5030203;28;20095;-72
2022/07/30 08:44:43;;;;;;;6.30;2.20;;;;;;;;;;5025115;28;20087;-71
2022/07/30 08:47:09;;;;;;;5.43;2.08;;;;;;;;;;5028590;28;20028;-72
2022/07/30 08:49:35;;;;;;;3.92;2.08;;;;;;;;;;5029676;28;20022;-71
2022/07/30 08:52:00;;;;;;;4.70;1.98;;;;;;;;;;5030139;28;20113;-70
2022/07/30 08:54:25;;;;;;;5.32;1.90;;;;;;;;;;5021091;28;20101;-71
2022/07/30 08:56:51;;;;;;;6.65;2.10;;;;;;;;;;5020072;28;20025;-71
2022/07/30 08:59:16;;;;;;;6.22;1.75;;;;;;;;;;5016892;28;20037;-71
2022/07/30 09:01:42;;;;;;;4.60;2.00;;;;;;;;;;5014853;28;20036;-71
2022/07/30 09:04:07;;;;;;;6.95;1.60;;;;;;;;;;5025552;28;20034;-70
2022/07/30 09:06:32;;;;;;;7.10;1.92;;;;;;;;;;5025975;28;20033;-72
2022/07/30 09:08:57;;;;;;;4.03;1.60;;;;;;;;;;5024680;28;20025;-72
2022/07/30 09:11:25;;;;;;;4.80;1.83;;;;;;;;;;5023682;28;20037;-71
2022/07/30 09:13:50;;;;;;;2.97;1.42;;;;;;;;;;5033429;28;20055;-72
2022/07/30 09:16:25;;;;;;;3.40;2.00;;;;;;;;;;5003540;28;20763;-71
2022/07/30 09:18:52;;;;;;;5.82;2.00;;;;;;;;;;5018219;28;20032;-72
2022/07/30 09:21:20;;;;;;;5.38;1.60;;;;;;;;;;5030278;28;20060;-72
2022/07/30 09:24:00;;;;;;;3.28;1.60;;;;;;;;;;5024692;28;20025;-71
2022/07/30 09:26:25;;;;;;;4.75;1.60;;;;;;;;;;5026433;28;20385;-71
2022/07/30 09:28:51;;;;;;;7.28;1.83;;;;;;;;;;5027779;28;20033;-71
2022/07/30 09:31:17;;;;;;;4.05;1.75;;;;;;;;;;5029389;28;20107;-72
2022/07/30 09:33:43;;;;;;;2.22;1.20;;;;;;;;;;5027393;28;20446;-71
2022/07/30 09:36:10;;;;;;;3.35;1.13;;;;;;;;;;5018542;28;20038;-72
2022/07/30 09:38:50;;;;;;;2.83;1.27;;;;;;;;;;5015202;28;20049;-72
2022/07/30 09:41:17;;;;;;;4.80;1.30;;;;;;;;;;5022719;28;20033;-72
2022/07/30 09:43:43;;;;;;;3.90;1.50;;;;;;;;;;5025449;28;20029;-72
2022/07/30 09:46:09;;;;;;;2.05;1.30;;;;;;;;;;5028556;28;20434;-71
2022/07/30 09:48:35;;;;;;;5.50;1.40;;;;;;;;;;5032346;28;20108;-71
2022/07/30 09:51:00;;;;;;;2.30;1.30;;;;;;;;;;5031745;28;20030;-72
2022/07/30 09:53:25;;;;;;;3.35;1.40;;;;;;;;;;5032322;28;20465;-71
2022/07/30 09:55:51;;;;;;;3.28;1.08;;;;;;;;;;5031407;28;20072;-72
2022/07/30 09:58:16;;;;;;;3.85;1.10;;;;;;;;;;5028253;28;20025;-71
2022/07/30 10:00:42;;;;;;;3.63;1.10;;;;;;;;;;5030765;28;20100;-72
2022/07/30 10:03:14;;;;;;;1.60;1.00;;;;;;;;;;5030292;28;20034;-71
2022/07/30 10:05:48;;;;;;;2.00;1.00;;;;;;;;;;5026458;28;20025;-71
2022/07/30 10:08:13;;;;;;;2.45;1.15;;;;;;;;;;5029207;28;20029;-71
2022/07/30 10:10:39;;;;;;;2.42;1.10;;;;;;;;;;5031921;28;20354;-72
2022/07/30 10:13:06;;;;;;;2.05;1.20;;;;;;;;;;5032822;28;20021;-72
2022/07/30 10:15:33;;;;;;;2.22;1.30;;;;;;;;;;5031522;28;20400;-72
2022/07/30 10:17:58;;;;;;;2.50;1.25;;;;;;;;;;5029561;28;20073;-71
2022/07/30 10:20:24;;;;;;;3.70;1.25;;;;;;;;;;5026855;28;20183;-71
2022/07/30 10:22:49;;;;;;;2.22;1.13;;;;;;;;;;5030943;28;20033;-71
2022/07/30 10:25:18;;;;;;;2.13;1.13;;;;;;;;;;5034124;28;20068;-71
2022/07/30 10:27:44;;;;;;;1.70;1.10;;;;;;;;;;5033815;28;20032;-71
2022/07/30 10:30:10;;;;;;;7.30;1.17;;;;;;;;;;5009119;28;20041;-71
2022/07/30 10:32:36;;;;;;;2.20;1.10;;;;;;;;;;5030531;28;20388;-71
2022/07/30 10:35:02;;;;;;;3.38;1.30;;;;;;;;;;5026472;28;20468;-71
2022/07/30 10:37:29;;;;;;;2.20;1.25;;;;;;;;;;5030001;28;20030;-71
2022/07/30 10:39:56;;;;;;;2.22;1.20;;;;;;;;;;5027021;28;20104;-71
2022/07/30 10:42:40;;;;;;;2.03;1.20;;;;;;;;;;5025592;28;20457;-71
2022/07/30 10:45:25;;;;;;;5.43;1.30;;;;;;;;;;5015375;28;20025;-71
2022/07/30 10:47:52;;;;;;;2.33;1.25;;;;;;;;;;5021851;28;20180;-71
2022/07/30 10:50:21;;;;;;;3.42;1.30;;;;;;;;;;5015125;28;20033;-71
2022/07/30 10:52:55;;;;;;;2.00;1.10;;;;;;;;;;5023820;28;20025;-71
2022/07/30 10:55:21;;;;;;;2.38;1.20;;;;;;;;;;5015471;28;21284;-71
2022/07/30 10:58:08;;;;;;;2.13;1.17;;;;;;;;;;5024383;28;20037;-71
2022/07/30 11:00:57;;;;;;;8.13;1.15;;;;;;;;;;5022334;28;20060;-70
2022/07/30 11:03:24;;;;;;;3.00;1.30;;;;;;;;;;5024805;28;20045;-72
2022/07/30 11:05:51;;;;;;;2.58;1.40;;;;;;;;;;5020686;28;20032;-71
2022/07/30 11:08:36;;;;;;;2.17;1.10;;;;;;;;;;5024298;28;20037;-71
2022/07/30 11:11:01;;;;;;;3.25;1.10;;;;;;;;;;5023547;28;20796;-71
2022/07/30 11:13:46;;;;;;;4.05;1.10;;;;;;;;;;5023396;28;20072;-71
2022/07/30 11:16:12;;;;;;;3.10;1.20;;;;;;;;;;4999099;28;20046;-71
2022/07/30 11:18:57;;;;;;;4.25;1.20;;;;;;;;;;5003559;28;20041;-71
2022/07/30 11:21:23;;;;;;;2.67;1.45;;;;;;;;;;5004663;28;20038;-71
2022/07/30 11:23:50;;;;;;;2.53;1.17;;;;;;;;;;5003911;28;20029;-70
2022/07/30 11:26:48;;;;;;;2.08;1.08;;;;;;;;;;4999275;28;20026;-71
2022/07/30 11:29:32;;;;;;;2.20;1.10;;;;;;;;;;4989544;28;20060;-71
2022/07/30 11:32:19;;;;;;;2.40;1.00;;;;;;;;;;5006355;28;20037;-70
2022/07/30 11:34:44;;;;;;;4.43;1.40;;;;;;;;;;4999558;28;20060;-71
2022/07/30 11:37:12;;;;;;;2.20;1.30;;;;;;;;;;5003854;28;20038;-71
2022/07/30 11:39:53;;;;;;;2.60;1.27;;;;;;;;;;5001756;28;20461;-71
2022/07/30 11:42:28;;;;;;;2.85;1.50;;;;;;;;;;5005056;28;20042;-71
2022/07/30 11:45:25;;;;;;;2.80;1.50;;;;;;;;;;5000367;28;20046;-71
2022/07/30 11:47:52;;;;;;;3.20;2.00;;;;;;;;;;4999083;28;20058;-71
2022/07/30 11:50:17;;;;;;;3.97;1.80;;;;;;;;;;5010237;28;20052;-72
2022/07/30 11:52:43;;;;;;;4.03;1.70;;;;;;;;;;5007068;28;20022;-71
2022/07/30 11:55:08;;;;;;;4.30;1.90;;;;;;;;;;5010548;28;20426;-71
2022/07/30 11:57:40;;;;;;;5.13;1.95;;;;;;;;;;5004303;28;20027;-71
2022/07/30 12:00:06;;;;;;;4.50;2.72;;;;;;;;;;5010908;28;20028;-71
2022/07/30 12:02:31;;;;;;;3.78;2.35;;;;;;;;;;5012851;28;20121;-72
2022/07/30 12:04:56;;;;;;;3.78;2.17;;;;;;;;;;5012117;28;20034;-71
2022/07/30 12:07:22;;;;;;;3.08;1.70;;;;;;;;;;5008753;28;20390;-71
2022/07/30 12:09:48;;;;;;;4.97;2.55;;;;;;;;;;5011615;28;20477;-71
2022/07/30 12:12:23;;;;;;;3.40;1.90;;;;;;;;;;5016776;28;20037;-72
2022/07/30 12:14:48;;;;;;;3.72;2.03;;;;;;;;;;5021455;28;20405;-71
2022/07/30 12:17:14;;;;;;;4.25;2.00;;;;;;;;;;5032997;28;20029;-71
2022/07/30 12:19:45;;;;;;;3.28;1.90;;;;;;;;;;5031046;28;20030;-72
2022/07/30 12:22:11;;;;;;;4.32;2.00;;;;;;;;;;5027712;28;20037;-71
2022/07/30 12:24:36;;;;;;;3.65;2.03;;;;;;;;;;5033929;28;20036;-71
2022/07/30 12:27:05;;;;;;;4.35;2.15;;;;;;;;;;5033361;28;20028;-72
2022/07/30 12:29:31;;;;;;;2.97;1.75;;;;;;;;;;5033777;28;20029;-71
2022/07/30 12:31:57;;;;;;;4.07;1.70;;;;;;;;;;5033399;28;20506;-71
2022/07/30 12:34:24;;;;;;;2.33;1.40;;;;;;;;;;5033191;28;20073;-72
2022/07/30 12:36:49;;;;;;;6.45;1.50;;;;;;;;;;5014913;28;20060;-71
2022/07/30 12:39:19;;;;;;;2.75;1.20;;;;;;;;;;5033808;28;20452;-71
2022/07/30 12:41:45;;;;;;;1.60;1.10;;;;;;;;;;5033472;28;20064;-72
2022/07/30 12:44:30;;;;;;;1.60;0.88;;;;;;;;;;5022243;28;20036;-72
2022/07/30 12:46:55;;;;;;;1.83;0.80;;;;;;;;;;5029455;28;20030;-72
2022/07/30 12:49:27;;;;;;;1.73;0.80;;;;;;;;;;5032654;28;20025;-72
2022/07/30 12:51:52;;;;;;;1.73;1.10;;;;;;;;;;5030998;28;20034;-72
2022/07/30 12:54:18;;;;;;;1.70;0.80;;;;;;;;;;5032786;28;20092;-72
2022/07/30 12:57:16;;;;;;;1.33;0.77;;;;;;;;;;5032118;28;20033;-72
2022/07/30 12:59:41;;;;;;;2.22;1.10;;;;;;;;;;4977972;28;20076;-72
2022/07/30 13:02:07;;;;;;;1.77;1.08;;;;;;;;;;5015422;28;20026;-72
2022/07/30 13:04:32;;;;;;;2.00;1.20;;;;;;;;;;5033222;28;20483;-72
2022/07/30 13:07:02;;;;;;;3.80;1.77;;;;;;;;;;5031299;28;20445;-72
2022/07/30 13:09:27;;;;;;;3.72;2.00;;;;;;;;;;5032640;28;20392;-72
2022/07/30 13:11:52;;;;;;;3.28;1.48;;;;;;;;;;5031303;28;20037;-71
2022/07/30 13:14:18;;;;;;;2.58;1.60;;;;;;;;;;5031815;28;20055;-71
2022/07/30 13:16:43;;;;;;;4.18;2.15;;;;;;;;;;5030354;28;20026;-72
2022/07/30 13:19:12;;;;;;;2.47;1.40;;;;;;;;;;5031089;28;20087;-72
2022/07/30 13:21:38;;;;;;;5.10;1.90;;;;;;;;;;5031302;28;20029;-72
2022/07/30 13:24:03;;;;;;;2.45;1.60;;;;;;;;;;5031684;28;20112;-72
2022/07/30 13:26:29;;;;;;;2.30;1.50;;;;;;;;;;5032810;28;20109;-72
2022/07/30 13:28:54;;;;;;;5.10;1.52;;;;;;;;;;5027759;28;20464;-71
2022/07/30 13:31:21;;;;;;;3.13;1.33;;;;;;;;;;5033050;28;20025;-72
2022/07/30 13:33:46;;;;;;;2.60;1.30;;;;;;;;;;5032488;28;20064;-72
2022/07/30 13:36:11;;;;;;;3.70;1.25;;;;;;;;;;5033301;28;20029;-72
2022/07/30 13:38:36;;;;;;;2.78;1.30;;;;;;;;;;5031365;28;20032;-72
2022/07/30 13:41:03;;;;;;;2.55;1.30;;;;;;;;;;5033074;28;20480;-72
2022/07/30 13:43:28;;;;;;;3.95;1.40;;;;;;;;;;5032850;28;20026;-72
2022/07/30 13:45:53;;;;;;;4.07;1.40;;;;;;;;;;5032787;28;20048;-72
2022/07/30 13:48:19;;;;;;;2.75;1.40;;;;;;;;;;5032625;28;20025;-72
2022/07/30 13:50:44;;;;;;;4.05;1.50;;;;;;;;;;5032745;28;20048;-72
2022/07/30 13:53:10;;;;;;;3.25;1.63;;;;;;;;;;5033330;28;20025;-71
2022/07/30 13:55:38;;;;;;;7.28;1.70;;;;;;;;;;5029800;28;20051;-72
2022/07/30 13:58:05;;;;;;;4.43;1.88;;;;;;;;;;5032562;28;20064;-72
2022/07/30 14:00:31;;;;;;;2.97;1.50;;;;;;;;;;5029259;28;20060;-71
2022/07/30 14:02:57;;;;;;;5.78;1.40;;;;;;;;;;5032141;28;20076;-72
2022/07/30 14:05:23;;;;;;;2.08;1.25;;;;;;;;;;5030432;28;20048;-72
2022/07/30 14:07:48;;;;;;;3.85;1.30;;;;;;;;;;5032040;28;20029;-72
2022/07/30 14:10:14;;;;;;;2.72;1.52;;;;;;;;;;5031424;28;20044;-71
2022/07/30 14:12:39;;;;;;;2.83;1.50;;;;;;;;;;5033259;28;20100;-72
2022/07/30 14:15:06;;;;;;;2.60;1.60;;;;;;;;;;5031612;28;20437;-71
2022/07/30 14:17:31;;;;;;;3.25;1.70;;;;;;;;;;5029680;28;20087;-72
2022/07/30 14:19:56;;;;;;;3.22;1.73;;;;;;;;;;5031261;28;20401;-72
2022/07/30 14:22:22;;;;;;;2.97;1.70;;;;;;;;;;5032640;28;20025;-71
2022/07/30 14:24:47;;;;;;;6.53;2.38;;;;;;;;;;5032220;28;20075;-72
2022/07/30 14:27:13;;;;;;;4.90;2.10;;;;;;;;;;5032945;28;20097;-72
2022/07/30 14:29:38;;;;;;;5.32;2.75;;;;;;;;;;5031875;28;20376;-71
2022/07/30 14:32:03;;;;;;;5.22;3.25;;;;;;;;;;5035647;28;20033;-71
2022/07/30 14:34:29;;;;;;;5.18;2.90;;;;;;;;;;5033251;28;20107;-72
2022/07/30 14:36:54;;;;;;;4.72;3.20;;;;;;;;;;5043234;28;20028;-71
2022/07/30 14:39:20;;;;;;;5.60;3.50;;;;;;;;;;5036420;28;20040;-72